sensor_id;sensor_type;location;lat;lon;timestamp;P1;durP1;ratioP1;P2;durP2;ratioP2
25721;SDS011;13578;53.450;15.496;2023-05-19T00:00:39;5.32;;;1.92;;
25721;SDS011;13578;53.450;15.496;2023-05-19T00:03:50;2.83;;;1.80;;
25721;SDS011;13578;53.450;15.496;2023-05-19T00:06:53;2.67;;;1.48;;
25721;SDS011;13578;53.450;15.496;2023-05-19T00:09:54;2.22;;;1.60;;
25721;SDS011;13578;53.450;15.496;2023-05-19T00:12:55;2.78;;;1.83;;
25721;SDS011;13578;53.450;15.496;2023-05-19T00:15:56;4.53;;;2.20;;
25721;SDS011;13578;53.450;15.496;2023-05-19T00:18:57;7.40;;;2.22;;
25721;SDS011;13578;53.450;15.496;2023-05-19T00:21:59;1.73;;;1.58;;
25721;SDS011;13578;53.450;15.496;2023-05-19T00:25:00;9.38;;;1.80;;
25721;SDS011;13578;53.450;15.496;2023-05-19T00:28:01;5.75;;;1.60;;
25721;SDS011;13578;53.450;15.496;2023-05-19T00:31:05;3.92;;;1.58;;
25721;SDS011;13578;53.450;15.496;2023-05-19T00:34:05;5.32;;;2.15;;
25721;SDS011;13578;53.450;15.496;2023-05-19T00:37:06;4.03;;;1.70;;
25721;SDS011;13578;53.450;15.496;2023-05-19T00:40:07;2.58;;;1.90;;
25721;SDS011;13578;53.450;15.496;2023-05-19T00:43:09;3.15;;;2.10;;
25721;SDS011;13578;53.450;15.496;2023-05-19T00:46:10;5.18;;;1.73;;
25721;SDS011;13578;53.450;15.496;2023-05-19T00:49:10;2.60;;;1.75;;
25721;SDS011;13578;53.450;15.496;2023-05-19T00:52:11;4.25;;;1.70;;
25721;SDS011;13578;53.450;15.496;2023-05-19T00:55:12;8.85;;;1.98;;
25721;SDS011;13578;53.450;15.496;2023-05-19T00:58:13;5.55;;;1.92;;
25721;SDS011;13578;53.450;15.496;2023-05-19T01:01:14;3.70;;;1.73;;
25721;SDS011;13578;53.450;15.496;2023-05-19T01:04:19;2.70;;;2.10;;
25721;SDS011;13578;53.450;15.496;2023-05-19T01:07:20;5.35;;;1.80;;
25721;SDS011;13578;53.450;15.496;2023-05-19T01:10:22;1.67;;;1.58;;
25721;SDS011;13578;53.450;15.496;2023-05-19T01:13:23;1.95;;;1.55;;
25721;SDS011;13578;53.450;15.496;2023-05-19T01:16:25;2.97;;;1.83;;
25721;SDS011;13578;53.450;15.496;2023-05-19T01:26:15;2.65;;;1.73;;
25721;SDS011;13578;53.450;15.496;2023-05-19T01:32:28;6.47;;;1.77;;
25721;SDS011;13578;53.450;15.496;2023-05-19T01:35:30;2.90;;;1.80;;
25721;SDS011;13578;53.450;15.496;2023-05-19T01:38:34;3.10;;;1.98;;
25721;SDS011;13578;53.450;15.496;2023-05-19T01:41:38;7.85;;;2.00;;
25721;SDS011;13578;53.450;15.496;2023-05-19T01:44:41;3.40;;;2.00;;
25721;SDS011;13578;53.450;15.496;2023-05-19T01:47:42;1.60;;;1.50;;
25721;SDS011;13578;53.450;15.496;2023-05-19T01:50:46;5.22;;;1.70;;
25721;SDS011;13578;53.450;15.496;2023-05-19T01:53:47;2.35;;;1.70;;
25721;SDS011;13578;53.450;15.496;2023-05-19T02:00:21;2.15;;;2.05;;
25721;SDS011;13578;53.450;15.496;2023-05-19T02:10:10;1.65;;;1.55;;
25721;SDS011;13578;53.450;15.496;2023-05-19T02:13:17;5.82;;;1.88;;
25721;SDS011;13578;53.450;15.496;2023-05-19T02:16:23;4.90;;;1.90;;
25721;SDS011;13578;53.450;15.496;2023-05-19T02:19:28;2.63;;;1.70;;
25721;SDS011;13578;53.450;15.496;2023-05-19T02:22:31;2.10;;;1.90;;
25721;SDS011;13578;53.450;15.496;2023-05-19T02:25:32;2.08;;;1.70;;
25721;SDS011;13578;53.450;15.496;2023-05-19T02:28:33;1.75;;;1.63;;
25721;SDS011;13578;53.450;15.496;2023-05-19T02:31:35;1.30;;;1.20;;
25721;SDS011;13578;53.450;15.496;2023-05-19T02:34:36;2.92;;;1.73;;
25721;SDS011;13578;53.450;15.496;2023-05-19T02:37:36;1.70;;;1.60;;
25721;SDS011;13578;53.450;15.496;2023-05-19T02:40:37;2.40;;;1.48;;
25721;SDS011;13578;53.450;15.496;2023-05-19T02:43:38;3.35;;;1.63;;
25721;SDS011;13578;53.450;15.496;2023-05-19T02:46:39;2.35;;;1.65;;
25721;SDS011;13578;53.450;15.496;2023-05-19T02:49:39;3.58;;;1.83;;
25721;SDS011;13578;53.450;15.496;2023-05-19T02:52:40;1.63;;;1.52;;
25721;SDS011;13578;53.450;15.496;2023-05-19T02:55:41;1.60;;;1.50;;
25721;SDS011;13578;53.450;15.496;2023-05-19T02:58:41;1.90;;;1.48;;
25721;SDS011;13578;53.450;15.496;2023-05-19T03:01:42;2.10;;;1.50;;
25721;SDS011;13578;53.450;15.496;2023-05-19T03:04:43;2.70;;;2.00;;
25721;SDS011;13578;53.450;15.496;2023-05-19T03:07:44;2.65;;;1.75;;
25721;SDS011;13578;53.450;15.496;2023-05-19T03:10:45;1.45;;;1.35;;
25721;SDS011;13578;53.450;15.496;2023-05-19T03:13:46;4.60;;;1.70;;
25721;SDS011;13578;53.450;15.496;2023-05-19T03:16:47;1.73;;;1.40;;
25721;SDS011;13578;53.450;15.496;2023-05-19T03:19:47;1.75;;;1.48;;
25721;SDS011;13578;53.450;15.496;2023-05-19T03:22:48;3.10;;;1.50;;
25721;SDS011;13578;53.450;15.496;2023-05-19T03:25:49;1.73;;;1.63;;
25721;SDS011;13578;53.450;15.496;2023-05-19T03:28:50;1.73;;;1.55;;
25721;SDS011;13578;53.450;15.496;2023-05-19T03:31:50;1.30;;;1.20;;
25721;SDS011;13578;53.450;15.496;2023-05-19T03:34:51;1.30;;;1.20;;
25721;SDS011;13578;53.450;15.496;2023-05-19T03:37:52;6.35;;;1.70;;
25721;SDS011;13578;53.450;15.496;2023-05-19T03:40:52;1.60;;;1.48;;
25721;SDS011;13578;53.450;15.496;2023-05-19T03:43:53;1.42;;;1.33;;
25721;SDS011;13578;53.450;15.496;2023-05-19T03:46:54;1.45;;;1.25;;
25721;SDS011;13578;53.450;15.496;2023-05-19T03:49:54;15.18;;;1.63;;
25721;SDS011;13578;53.450;15.496;2023-05-19T03:52:55;1.65;;;1.30;;
25721;SDS011;13578;53.450;15.496;2023-05-19T03:55:56;1.70;;;1.60;;
25721;SDS011;13578;53.450;15.496;2023-05-19T03:58:58;2.55;;;1.42;;
25721;SDS011;13578;53.450;15.496;2023-05-19T04:01:59;3.35;;;1.50;;
25721;SDS011;13578;53.450;15.496;2023-05-19T04:04:59;3.22;;;1.60;;
25721;SDS011;13578;53.450;15.496;2023-05-19T04:08:00;4.78;;;1.27;;
25721;SDS011;13578;53.450;15.496;2023-05-19T04:11:01;3.20;;;1.95;;
25721;SDS011;13578;53.450;15.496;2023-05-19T04:14:01;2.17;;;1.60;;
25721;SDS011;13578;53.450;15.496;2023-05-19T04:17:02;1.77;;;1.23;;
25721;SDS011;13578;53.450;15.496;2023-05-19T04:20:03;3.75;;;1.10;;
25721;SDS011;13578;53.450;15.496;2023-05-19T04:23:06;1.35;;;1.02;;
25721;SDS011;13578;53.450;15.496;2023-05-19T04:26:07;2.83;;;1.25;;
25721;SDS011;13578;53.450;15.496;2023-05-19T04:29:08;1.30;;;1.20;;
25721;SDS011;13578;53.450;15.496;2023-05-19T04:32:09;1.38;;;1.02;;
25721;SDS011;13578;53.450;15.496;2023-05-19T04:35:10;1.08;;;0.82;;
25721;SDS011;13578;53.450;15.496;2023-05-19T04:38:12;3.13;;;1.17;;
25721;SDS011;13578;53.450;15.496;2023-05-19T04:41:17;1.65;;;1.20;;
25721;SDS011;13578;53.450;15.496;2023-05-19T04:44:18;1.83;;;0.93;;
25721;SDS011;13578;53.450;15.496;2023-05-19T04:47:19;1.13;;;1.00;;
25721;SDS011;13578;53.450;15.496;2023-05-19T04:50:20;2.90;;;0.93;;
25721;SDS011;13578;53.450;15.496;2023-05-19T04:53:22;0.70;;;0.70;;
25721;SDS011;13578;53.450;15.496;2023-05-19T04:56:24;1.30;;;0.90;;
25721;SDS011;13578;53.450;15.496;2023-05-19T04:59:26;1.42;;;1.25;;
25721;SDS011;13578;53.450;15.496;2023-05-19T05:02:27;1.40;;;0.73;;
25721;SDS011;13578;53.450;15.496;2023-05-19T05:05:27;2.22;;;0.80;;
25721;SDS011;13578;53.450;15.496;2023-05-19T05:08:28;1.60;;;0.80;;
25721;SDS011;13578;53.450;15.496;2023-05-19T05:11:29;1.15;;;0.70;;
25721;SDS011;13578;53.450;15.496;2023-05-19T05:14:30;3.15;;;1.17;;
25721;SDS011;13578;53.450;15.496;2023-05-19T05:17:31;2.25;;;1.15;;
25721;SDS011;13578;53.450;15.496;2023-05-19T05:20:34;2.78;;;0.98;;
25721;SDS011;13578;53.450;15.496;2023-05-19T05:23:35;2.50;;;0.70;;
25721;SDS011;13578;53.450;15.496;2023-05-19T05:26:36;1.98;;;1.38;;
25721;SDS011;13578;53.450;15.496;2023-05-19T05:29:37;0.90;;;0.82;;
25721;SDS011;13578;53.450;15.496;2023-05-19T05:32:38;6.07;;;0.77;;
25721;SDS011;13578;53.450;15.496;2023-05-19T05:35:38;1.88;;;0.80;;
25721;SDS011;13578;53.450;15.496;2023-05-19T05:38:39;2.08;;;0.85;;
25721;SDS011;13578;53.450;15.496;2023-05-19T05:41:40;1.95;;;0.80;;
25721;SDS011;13578;53.450;15.496;2023-05-19T05:44:40;1.83;;;0.93;;
25721;SDS011;13578;53.450;15.496;2023-05-19T05:47:41;1.55;;;0.90;;
25721;SDS011;13578;53.450;15.496;2023-05-19T05:50:42;4.45;;;0.70;;
25721;SDS011;13578;53.450;15.496;2023-05-19T05:53:44;1.23;;;0.77;;
25721;SDS011;13578;53.450;15.496;2023-05-19T05:56:51;1.58;;;0.90;;
25721;SDS011;13578;53.450;15.496;2023-05-19T05:59:51;4.35;;;0.80;;
25721;SDS011;13578;53.450;15.496;2023-05-19T06:02:52;2.35;;;0.90;;
25721;SDS011;13578;53.450;15.496;2023-05-19T06:05:53;0.90;;;0.50;;
25721;SDS011;13578;53.450;15.496;2023-05-19T06:08:53;1.42;;;0.57;;
25721;SDS011;13578;53.450;15.496;2023-05-19T06:11:54;8.00;;;0.80;;
25721;SDS011;13578;53.450;15.496;2023-05-19T06:14:57;2.25;;;0.50;;
25721;SDS011;13578;53.450;15.496;2023-05-19T06:17:57;4.40;;;1.02;;
25721;SDS011;13578;53.450;15.496;2023-05-19T06:20:58;3.42;;;0.60;;
25721;SDS011;13578;53.450;15.496;2023-05-19T06:23:59;1.45;;;0.70;;
25721;SDS011;13578;53.450;15.496;2023-05-19T06:26:59;1.13;;;0.70;;
25721;SDS011;13578;53.450;15.496;2023-05-19T06:30:00;0.85;;;0.40;;
25721;SDS011;13578;53.450;15.496;2023-05-19T06:33:01;5.13;;;1.08;;
25721;SDS011;13578;53.450;15.496;2023-05-19T06:36:02;3.63;;;0.50;;
25721;SDS011;13578;53.450;15.496;2023-05-19T06:39:03;3.28;;;0.40;;
25721;SDS011;13578;53.450;15.496;2023-05-19T06:42:04;1.20;;;0.50;;
25721;SDS011;13578;53.450;15.496;2023-05-19T06:45:04;3.47;;;0.43;;
25721;SDS011;13578;53.450;15.496;2023-05-19T06:48:05;0.90;;;0.40;;
25721;SDS011;13578;53.450;15.496;2023-05-19T06:51:06;0.73;;;0.43;;
25721;SDS011;13578;53.450;15.496;2023-05-19T06:54:09;2.33;;;0.47;;
25721;SDS011;13578;53.450;15.496;2023-05-19T07:00:15;0.55;;;0.30;;
25721;SDS011;13578;53.450;15.496;2023-05-19T07:03:17;1.75;;;0.40;;
25721;SDS011;13578;53.450;15.496;2023-05-19T07:06:18;1.15;;;0.40;;
25721;SDS011;13578;53.450;15.496;2023-05-19T07:09:18;0.70;;;0.40;;
25721;SDS011;13578;53.450;15.496;2023-05-19T07:12:19;1.05;;;0.38;;
25721;SDS011;13578;53.450;15.496;2023-05-19T07:15:20;4.47;;;0.30;;
25721;SDS011;13578;53.450;15.496;2023-05-19T07:18:21;0.35;;;0.20;;
25721;SDS011;13578;53.450;15.496;2023-05-19T07:21:22;4.32;;;0.73;;
25721;SDS011;13578;53.450;15.496;2023-05-19T07:24:22;1.23;;;0.20;;
25721;SDS011;13578;53.450;15.496;2023-05-19T07:27:23;1.90;;;0.43;;
25721;SDS011;13578;53.450;15.496;2023-05-19T07:33:27;0.60;;;0.20;;
25721;SDS011;13578;53.450;15.496;2023-05-19T07:36:27;0.40;;;0.10;;
25721;SDS011;13578;53.450;15.496;2023-05-19T07:39:28;20.83;;;0.82;;
25721;SDS011;13578;53.450;15.496;2023-05-19T07:42:31;3.78;;;0.17;;
25721;SDS011;13578;53.450;15.496;2023-05-19T07:45:31;1.05;;;0.43;;
25721;SDS011;13578;53.450;15.496;2023-05-19T07:48:32;1.35;;;0.30;;
25721;SDS011;13578;53.450;15.496;2023-05-19T07:51:33;0.47;;;0.17;;
25721;SDS011;13578;53.450;15.496;2023-05-19T07:54:33;1.67;;;0.30;;
25721;SDS011;13578;53.450;15.496;2023-05-19T07:57:34;4.90;;;0.30;;
25721;SDS011;13578;53.450;15.496;2023-05-19T08:00:34;1.88;;;0.43;;
25721;SDS011;13578;53.450;15.496;2023-05-19T08:03:35;2.95;;;0.22;;
25721;SDS011;13578;53.450;15.496;2023-05-19T08:06:36;1.13;;;0.30;;
25721;SDS011;13578;53.450;15.496;2023-05-19T08:09:37;4.35;;;0.28;;
25721;SDS011;13578;53.450;15.496;2023-05-19T08:12:37;6.15;;;0.55;;
25721;SDS011;13578;53.450;15.496;2023-05-19T08:15:38;0.63;;;0.20;;
25721;SDS011;13578;53.450;15.496;2023-05-19T08:18:39;0.77;;;0.20;;
25721;SDS011;13578;53.450;15.496;2023-05-19T08:21:39;0.40;;;0.20;;
25721;SDS011;13578;53.450;15.496;2023-05-19T08:24:41;0.40;;;0.20;;
25721;SDS011;13578;53.450;15.496;2023-05-19T08:27:42;4.47;;;0.43;;
25721;SDS011;13578;53.450;15.496;2023-05-19T08:30:42;2.80;;;0.10;;
25721;SDS011;13578;53.450;15.496;2023-05-19T08:33:43;0.68;;;0.30;;
25721;SDS011;13578;53.450;15.496;2023-05-19T08:36:44;0.90;;;0.40;;
25721;SDS011;13578;53.450;15.496;2023-05-19T08:39:46;2.05;;;0.40;;
25721;SDS011;13578;53.450;15.496;2023-05-19T08:42:47;2.28;;;0.35;;
25721;SDS011;13578;53.450;15.496;2023-05-19T08:45:48;1.77;;;0.20;;
25721;SDS011;13578;53.450;15.496;2023-05-19T08:48:49;0.77;;;0.30;;
25721;SDS011;13578;53.450;15.496;2023-05-19T08:51:55;2.58;;;0.40;;
25721;SDS011;13578;53.450;15.496;2023-05-19T08:58:48;0.75;;;0.30;;
25721;SDS011;13578;53.450;15.496;2023-05-19T09:01:49;2.10;;;0.20;;
25721;SDS011;13578;53.450;15.496;2023-05-19T09:04:50;1.83;;;0.60;;
25721;SDS011;13578;53.450;15.496;2023-05-19T09:07:52;4.07;;;0.25;;
25721;SDS011;13578;53.450;15.496;2023-05-19T09:10:52;2.92;;;0.05;;
25721;SDS011;13578;53.450;15.496;2023-05-19T09:13:53;1.85;;;0.30;;
25721;SDS011;13578;53.450;15.496;2023-05-19T09:16:54;0.98;;;0.40;;
25721;SDS011;13578;53.450;15.496;2023-05-19T09:19:54;1.05;;;0.20;;
25721;SDS011;13578;53.450;15.496;2023-05-19T09:22:55;1.15;;;0.50;;
25721;SDS011;13578;53.450;15.496;2023-05-19T09:25:56;1.73;;;0.20;;
25721;SDS011;13578;53.450;15.496;2023-05-19T09:28:57;1.85;;;0.10;;
25721;SDS011;13578;53.450;15.496;2023-05-19T09:31:57;3.08;;;0.30;;
25721;SDS011;13578;53.450;15.496;2023-05-19T09:35:02;0.43;;;0.20;;
25721;SDS011;13578;53.450;15.496;2023-05-19T09:38:03;0.25;;;0.10;;
25721;SDS011;13578;53.450;15.496;2023-05-19T09:41:04;0.45;;;0.10;;
25721;SDS011;13578;53.450;15.496;2023-05-19T09:44:06;1.23;;;0.22;;
25721;SDS011;13578;53.450;15.496;2023-05-19T09:47:08;1.08;;;0.10;;
25721;SDS011;13578;53.450;15.496;2023-05-19T09:50:10;0.60;;;0.10;;
25721;SDS011;13578;53.450;15.496;2023-05-19T09:53:13;0.35;;;0.15;;
25721;SDS011;13578;53.450;15.496;2023-05-19T09:56:14;0.73;;;0.32;;
25721;SDS011;13578;53.450;15.496;2023-05-19T09:59:15;0.73;;;0.10;;
25721;SDS011;13578;53.450;15.496;2023-05-19T10:02:15;1.02;;;0.40;;
25721;SDS011;13578;53.450;15.496;2023-05-19T10:05:20;0.50;;;0.20;;
25721;SDS011;13578;53.450;15.496;2023-05-19T10:08:21;0.80;;;0.20;;
25721;SDS011;13578;53.450;15.496;2023-05-19T10:11:25;2.58;;;0.20;;
25721;SDS011;13578;53.450;15.496;2023-05-19T10:14:27;0.70;;;0.20;;
25721;SDS011;13578;53.450;15.496;2023-05-19T10:17:29;1.00;;;0.20;;
25721;SDS011;13578;53.450;15.496;2023-05-19T10:20:30;0.32;;;0.10;;
25721;SDS011;13578;53.450;15.496;2023-05-19T10:23:33;6.50;;;0.90;;
25721;SDS011;13578;53.450;15.496;2023-05-19T10:26:34;0.52;;;0.20;;
25721;SDS011;13578;53.450;15.496;2023-05-19T10:29:36;1.13;;;0.13;;
25721;SDS011;13578;53.450;15.496;2023-05-19T10:32:41;1.67;;;0.30;;
25721;SDS011;13578;53.450;15.496;2023-05-19T10:35:56;2.78;;;0.45;;
25721;SDS011;13578;53.450;15.496;2023-05-19T10:39:16;0.60;;;0.10;;
25721;SDS011;13578;53.450;15.496;2023-05-19T10:42:39;3.72;;;0.32;;
25721;SDS011;13578;53.450;15.496;2023-05-19T10:45:46;6.40;;;0.60;;
25721;SDS011;13578;53.450;15.496;2023-05-19T10:48:48;0.55;;;0.20;;
25721;SDS011;13578;53.450;15.496;2023-05-19T10:51:50;0.82;;;0.10;;
25721;SDS011;13578;53.450;15.496;2023-05-19T10:54:54;0.30;;;0.10;;
25721;SDS011;13578;53.450;15.496;2023-05-19T10:57:55;1.13;;;0.20;;
25721;SDS011;13578;53.450;15.496;2023-05-19T11:00:59;1.30;;;0.10;;
25721;SDS011;13578;53.450;15.496;2023-05-19T11:04:04;1.48;;;0.20;;
25721;SDS011;13578;53.450;15.496;2023-05-19T11:10:08;0.80;;;0.10;;
25721;SDS011;13578;53.450;15.496;2023-05-19T11:13:17;0.95;;;0.20;;
25721;SDS011;13578;53.450;15.496;2023-05-19T11:16:26;3.08;;;0.17;;
25721;SDS011;13578;53.450;15.496;2023-05-19T11:19:29;0.82;;;0.20;;
25721;SDS011;13578;53.450;15.496;2023-05-19T11:22:34;1.17;;;0.25;;
25721;SDS011;13578;53.450;15.496;2023-05-19T11:25:49;0.43;;;0.10;;
25721;SDS011;13578;53.450;15.496;2023-05-19T11:28:51;1.52;;;0.43;;
25721;SDS011;13578;53.450;15.496;2023-05-19T11:31:51;1.17;;;0.20;;
25721;SDS011;13578;53.450;15.496;2023-05-19T11:34:53;0.43;;;0.13;;
25721;SDS011;13578;53.450;15.496;2023-05-19T11:37:55;1.00;;;0.17;;
25721;SDS011;13578;53.450;15.496;2023-05-19T11:40:56;0.98;;;0.30;;
25721;SDS011;13578;53.450;15.496;2023-05-19T11:43:57;0.52;;;0.13;;
25721;SDS011;13578;53.450;15.496;2023-05-19T11:46:57;0.20;;;0.10;;
25721;SDS011;13578;53.450;15.496;2023-05-19T11:49:59;0.47;;;0.10;;
25721;SDS011;13578;53.450;15.496;2023-05-19T11:52:59;0.65;;;0.28;;
25721;SDS011;13578;53.450;15.496;2023-05-19T11:56:03;0.90;;;0.40;;
25721;SDS011;13578;53.450;15.496;2023-05-19T11:59:04;1.08;;;0.10;;
25721;SDS011;13578;53.450;15.496;2023-05-19T12:02:15;0.50;;;0.20;;
25721;SDS011;13578;53.450;15.496;2023-05-19T12:05:20;1.02;;;0.32;;
25721;SDS011;13578;53.450;15.496;2023-05-19T12:08:22;1.83;;;0.30;;
25721;SDS011;13578;53.450;15.496;2023-05-19T12:11:23;0.35;;;0.20;;
25721;SDS011;13578;53.450;15.496;2023-05-19T12:14:28;1.02;;;0.20;;
25721;SDS011;13578;53.450;15.496;2023-05-19T12:17:31;0.80;;;0.30;;
25721;SDS011;13578;53.450;15.496;2023-05-19T12:20:31;0.30;;;0.10;;
25721;SDS011;13578;53.450;15.496;2023-05-19T12:23:34;0.63;;;0.30;;
25721;SDS011;13578;53.450;15.496;2023-05-19T12:26:35;0.82;;;0.22;;
25721;SDS011;13578;53.450;15.496;2023-05-19T12:29:36;3.80;;;0.65;;
25721;SDS011;13578;53.450;15.496;2023-05-19T12:32:38;2.88;;;0.45;;
25721;SDS011;13578;53.450;15.496;2023-05-19T12:35:40;1.27;;;0.13;;
25721;SDS011;13578;53.450;15.496;2023-05-19T12:38:41;1.40;;;0.30;;
25721;SDS011;13578;53.450;15.496;2023-05-19T12:41:43;2.95;;;0.10;;
25721;SDS011;13578;53.450;15.496;2023-05-19T12:44:48;2.95;;;0.35;;
25721;SDS011;13578;53.450;15.496;2023-05-19T12:47:53;0.63;;;0.10;;
25721;SDS011;13578;53.450;15.496;2023-05-19T12:50:54;1.73;;;0.20;;
25721;SDS011;13578;53.450;15.496;2023-05-19T12:53:55;2.17;;;0.30;;
25721;SDS011;13578;53.450;15.496;2023-05-19T12:56:57;0.30;;;0.10;;
25721;SDS011;13578;53.450;15.496;2023-05-19T13:03:06;0.45;;;0.10;;
25721;SDS011;13578;53.450;15.496;2023-05-19T13:06:08;3.08;;;0.20;;
25721;SDS011;13578;53.450;15.496;2023-05-19T13:09:09;1.35;;;0.10;;
25721;SDS011;13578;53.450;15.496;2023-05-19T13:12:10;1.30;;;0.30;;
25721;SDS011;13578;53.450;15.496;2023-05-19T13:15:11;1.52;;;0.20;;
25721;SDS011;13578;53.450;15.496;2023-05-19T13:18:12;4.03;;;0.40;;
25721;SDS011;13578;53.450;15.496;2023-05-19T13:21:13;1.98;;;0.70;;
25721;SDS011;13578;53.450;15.496;2023-05-19T13:24:14;0.82;;;0.30;;
25721;SDS011;13578;53.450;15.496;2023-05-19T13:27:14;2.05;;;0.25;;
25721;SDS011;13578;53.450;15.496;2023-05-19T13:30:16;0.60;;;0.20;;
25721;SDS011;13578;53.450;15.496;2023-05-19T13:33:18;0.30;;;0.10;;
25721;SDS011;13578;53.450;15.496;2023-05-19T13:36:18;3.20;;;0.17;;
25721;SDS011;13578;53.450;15.496;2023-05-19T13:39:19;1.58;;;0.50;;
25721;SDS011;13578;53.450;15.496;2023-05-19T13:42:19;0.65;;;0.10;;
25721;SDS011;13578;53.450;15.496;2023-05-19T13:45:20;1.58;;;0.20;;
25721;SDS011;13578;53.450;15.496;2023-05-19T13:48:21;0.30;;;0.10;;
25721;SDS011;13578;53.450;15.496;2023-05-19T13:51:21;0.68;;;0.17;;
25721;SDS011;13578;53.450;15.496;2023-05-19T13:54:22;3.88;;;0.40;;
25721;SDS011;13578;53.450;15.496;2023-05-19T13:57:23;1.50;;;0.15;;
25721;SDS011;13578;53.450;15.496;2023-05-19T14:00:26;1.40;;;0.20;;
25721;SDS011;13578;53.450;15.496;2023-05-19T14:03:27;1.02;;;0.30;;
25721;SDS011;13578;53.450;15.496;2023-05-19T14:06:28;3.50;;;0.30;;
25721;SDS011;13578;53.450;15.496;2023-05-19T14:09:29;1.10;;;0.40;;
25721;SDS011;13578;53.450;15.496;2023-05-19T14:12:30;0.70;;;0.20;;
25721;SDS011;13578;53.450;15.496;2023-05-19T14:15:31;1.15;;;0.20;;
25721;SDS011;13578;53.450;15.496;2023-05-19T14:21:36;1.70;;;0.20;;
25721;SDS011;13578;53.450;15.496;2023-05-19T14:24:37;0.30;;;0.20;;
25721;SDS011;13578;53.450;15.496;2023-05-19T14:27:38;0.90;;;0.30;;
25721;SDS011;13578;53.450;15.496;2023-05-19T14:30:39;2.33;;;0.30;;
25721;SDS011;13578;53.450;15.496;2023-05-19T14:33:40;3.20;;;0.30;;
25721;SDS011;13578;53.450;15.496;2023-05-19T14:36:41;1.77;;;0.45;;
25721;SDS011;13578;53.450;15.496;2023-05-19T14:39:41;0.50;;;0.20;;
25721;SDS011;13578;53.450;15.496;2023-05-19T14:42:43;2.22;;;0.63;;
25721;SDS011;13578;53.450;15.496;2023-05-19T14:45:43;1.95;;;0.30;;
25721;SDS011;13578;53.450;15.496;2023-05-19T14:48:44;3.58;;;0.45;;
25721;SDS011;13578;53.450;15.496;2023-05-19T14:51:45;1.58;;;0.52;;
25721;SDS011;13578;53.450;15.496;2023-05-19T14:54:45;4.57;;;0.47;;
25721;SDS011;13578;53.450;15.496;2023-05-19T14:57:46;1.50;;;0.68;;
25721;SDS011;13578;53.450;15.496;2023-05-19T15:00:46;2.78;;;0.30;;
25721;SDS011;13578;53.450;15.496;2023-05-19T15:03:47;1.67;;;0.50;;
25721;SDS011;13578;53.450;15.496;2023-05-19T15:06:48;10.57;;;0.38;;
25721;SDS011;13578;53.450;15.496;2023-05-19T15:09:48;1.75;;;0.30;;
25721;SDS011;13578;53.450;15.496;2023-05-19T15:12:49;1.73;;;0.70;;
25721;SDS011;13578;53.450;15.496;2023-05-19T15:15:52;3.67;;;0.30;;
25721;SDS011;13578;53.450;15.496;2023-05-19T15:18:54;3.42;;;0.60;;
25721;SDS011;13578;53.450;15.496;2023-05-19T15:21:54;1.35;;;0.38;;
25721;SDS011;13578;53.450;15.496;2023-05-19T15:24:55;0.75;;;0.30;;
25721;SDS011;13578;53.450;15.496;2023-05-19T15:27:55;1.50;;;0.30;;
25721;SDS011;13578;53.450;15.496;2023-05-19T15:30:56;0.38;;;0.20;;
25721;SDS011;13578;53.450;15.496;2023-05-19T15:33:57;55.10;;;5.05;;
25721;SDS011;13578;53.450;15.496;2023-05-19T15:36:58;11.20;;;1.10;;
25721;SDS011;13578;53.450;15.496;2023-05-19T15:39:58;0.73;;;0.30;;
25721;SDS011;13578;53.450;15.496;2023-05-19T15:42:59;0.77;;;0.20;;
25721;SDS011;13578;53.450;15.496;2023-05-19T15:46:00;0.80;;;0.30;;
25721;SDS011;13578;53.450;15.496;2023-05-19T15:49:00;1.65;;;0.47;;
25721;SDS011;13578;53.450;15.496;2023-05-19T15:52:02;1.63;;;0.32;;
25721;SDS011;13578;53.450;15.496;2023-05-19T15:55:03;0.70;;;0.35;;
25721;SDS011;13578;53.450;15.496;2023-05-19T15:58:04;2.15;;;0.43;;
25721;SDS011;13578;53.450;15.496;2023-05-19T16:01:05;1.48;;;0.47;;
25721;SDS011;13578;53.450;15.496;2023-05-19T16:04:06;3.55;;;0.30;;
25721;SDS011;13578;53.450;15.496;2023-05-19T16:07:06;0.90;;;0.35;;
25721;SDS011;13578;53.450;15.496;2023-05-19T16:10:07;2.03;;;0.40;;
25721;SDS011;13578;53.450;15.496;2023-05-19T16:13:08;2.08;;;0.40;;
25721;SDS011;13578;53.450;15.496;2023-05-19T16:16:09;2.05;;;0.52;;
25721;SDS011;13578;53.450;15.496;2023-05-19T16:19:09;0.77;;;0.40;;
25721;SDS011;13578;53.450;15.496;2023-05-19T16:22:10;1.95;;;0.47;;
25721;SDS011;13578;53.450;15.496;2023-05-19T16:25:10;2.35;;;0.70;;
25721;SDS011;13578;53.450;15.496;2023-05-19T16:28:11;0.60;;;0.20;;
25721;SDS011;13578;53.450;15.496;2023-05-19T16:31:12;0.70;;;0.30;;
25721;SDS011;13578;53.450;15.496;2023-05-19T16:34:12;1.25;;;0.47;;
25721;SDS011;13578;53.450;15.496;2023-05-19T16:37:13;2.25;;;0.40;;
25721;SDS011;13578;53.450;15.496;2023-05-19T16:40:13;1.55;;;0.75;;
25721;SDS011;13578;53.450;15.496;2023-05-19T16:43:14;1.30;;;0.50;;
25721;SDS011;13578;53.450;15.496;2023-05-19T16:46:15;3.70;;;0.40;;
25721;SDS011;13578;53.450;15.496;2023-05-19T16:49:15;4.53;;;0.70;;
25721;SDS011;13578;53.450;15.496;2023-05-19T16:52:16;2.05;;;0.40;;
25721;SDS011;13578;53.450;15.496;2023-05-19T16:55:16;0.68;;;0.32;;
25721;SDS011;13578;53.450;15.496;2023-05-19T16:58:19;4.32;;;0.30;;
25721;SDS011;13578;53.450;15.496;2023-05-19T17:01:19;18.25;;;1.75;;
25721;SDS011;13578;53.450;15.496;2023-05-19T17:04:20;1.65;;;0.30;;
25721;SDS011;13578;53.450;15.496;2023-05-19T17:07:21;5.68;;;1.15;;
25721;SDS011;13578;53.450;15.496;2023-05-19T17:10:22;1.40;;;0.30;;
25721;SDS011;13578;53.450;15.496;2023-05-19T17:13:22;1.05;;;0.47;;
25721;SDS011;13578;53.450;15.496;2023-05-19T17:16:23;1.73;;;0.60;;
25721;SDS011;13578;53.450;15.496;2023-05-19T17:19:23;4.18;;;1.17;;
25721;SDS011;13578;53.450;15.496;2023-05-19T17:22:24;1.45;;;0.35;;
25721;SDS011;13578;53.450;15.496;2023-05-19T17:25:26;1.17;;;0.30;;
25721;SDS011;13578;53.450;15.496;2023-05-19T17:28:26;4.93;;;0.50;;
25721;SDS011;13578;53.450;15.496;2023-05-19T17:31:27;2.05;;;0.40;;
25721;SDS011;13578;53.450;15.496;2023-05-19T17:34:27;1.10;;;0.50;;
25721;SDS011;13578;53.450;15.496;2023-05-19T17:37:29;5.57;;;0.50;;
25721;SDS011;13578;53.450;15.496;2023-05-19T17:40:29;0.80;;;0.38;;
25721;SDS011;13578;53.450;15.496;2023-05-19T17:43:30;1.45;;;0.50;;
25721;SDS011;13578;53.450;15.496;2023-05-19T17:46:31;1.15;;;0.55;;
25721;SDS011;13578;53.450;15.496;2023-05-19T17:49:35;1.60;;;0.22;;
25721;SDS011;13578;53.450;15.496;2023-05-19T17:52:37;5.43;;;0.47;;
25721;SDS011;13578;53.450;15.496;2023-05-19T17:55:38;5.20;;;1.35;;
25721;SDS011;13578;53.450;15.496;2023-05-19T17:58:39;3.20;;;0.55;;
25721;SDS011;13578;53.450;15.496;2023-05-19T18:01:40;2.22;;;0.50;;
25721;SDS011;13578;53.450;15.496;2023-05-19T18:04:41;4.57;;;0.60;;
25721;SDS011;13578;53.450;15.496;2023-05-19T18:07:42;5.13;;;0.98;;
25721;SDS011;13578;53.450;15.496;2023-05-19T18:10:44;1.77;;;0.73;;
25721;SDS011;13578;53.450;15.496;2023-05-19T18:13:50;3.55;;;1.08;;
25721;SDS011;13578;53.450;15.496;2023-05-19T18:16:51;16.38;;;1.13;;
25721;SDS011;13578;53.450;15.496;2023-05-19T18:19:51;3.70;;;0.93;;
25721;SDS011;13578;53.450;15.496;2023-05-19T18:22:53;6.65;;;1.00;;
25721;SDS011;13578;53.450;15.496;2023-05-19T18:25:54;6.13;;;1.10;;
25721;SDS011;13578;53.450;15.496;2023-05-19T18:28:54;3.88;;;0.98;;
25721;SDS011;13578;53.450;15.496;2023-05-19T18:32:01;3.90;;;1.25;;
25721;SDS011;13578;53.450;15.496;2023-05-19T18:35:02;3.70;;;1.15;;